Time;durP1;ratioP1;P1;durP2;ratioP2;P2;SDS_P1;SDS_P2;PMS_P1;PMS_P2;Temp;Humidity;BMP_temperature;BMP_pressure;BME280_temperature;BME280_humidity;BME280_pressure;Samples;Min_cycle;Max_cycle;Signal;HPM_P1;HPM_P2
2023/07/02 00:01:22;;;;;;;;;;;;;;;;;;5070651;28;20433;-45
2023/07/02 05:08:32;;;;;;;;;;;;;;;;;;5064912;28;20022;-46
2023/07/02 05:10:58;;;;;;;;;;;;;;;;;;5066166;28;19958;-44
2023/07/02 05:13:24;;;;;;;;;;;;;;;;;;5069080;28;19940;-46
2023/07/02 05:15:50;;;;;;;;;;;;;;;;;;5069361;28;19975;-48
2023/07/02 05:18:16;;;;;;;;;;;;;;;;;;5069220;28;20461;-46
2023/07/02 05:20:42;;;;;;;;;;;;;;;;;;5069645;28;20013;-45
2023/07/02 05:23:07;;;;;;;;;;;;;;;;;;5050798;28;19947;-46
2023/07/02 05:25:33;;;;;;;;;;;;;;;;;;5068257;28;19923;-45
2023/07/02 05:27:59;;;;;;;;;;;;;;;;;;5068908;28;20328;-44
2023/07/02 05:30:25;;;;;;;;;;;;;;;;;;5069061;28;20385;-44
2023/07/02 05:32:51;;;;;;;;;;;;;;;;;;5068778;28;20080;-46
2023/07/02 05:35:17;;;;;;;;;;;;;;;;;;5068755;28;20397;-46
2023/07/02 05:37:43;;;;;;;;;;;;;;;;;;5068901;28;19923;-46
2023/07/02 05:40:09;;;;;;;;;;;;;;;;;;5068598;28;20337;-45
2023/07/02 05:42:35;;;;;;;;;;;;;;;;;;5068419;28;19950;-44
2023/07/02 05:45:00;;;;;;;;;;;;;;;;;;5068794;28;19976;-43
2023/07/02 05:47:27;;;;;;;;;;;;;;;;;;5062090;28;20000;-47
2023/07/02 05:49:53;;;;;;;;;;;;;;;;;;5033574;28;20362;-46
2023/07/02 05:52:19;;;;;;;;;;;;;;;;;;5031937;28;19915;-44
2023/07/02 05:54:45;;;;;;;;;;;;;;;;;;5031544;28;19932;-44
2023/07/02 05:57:11;;;;;;;;;;;;;;;;;;5039225;28;19966;-44
2023/07/02 05:59:37;;;;;;;;;;;;;;;;;;5049505;28;20196;-45
2023/07/02 06:02:03;;;;;;;;;;;;;;;;;;5048741;28;19970;-44
2023/07/02 06:04:29;;;;;;;;;;;;;;;;;;5048950;28;19961;-46
2023/07/02 06:06:55;;;;;;;;;;;;;;;;;;5048724;28;19927;-45
2023/07/02 06:09:20;;;;;;;;;;;;;;;;;;5048563;28;19930;-45
2023/07/02 06:11:46;;;;;;;;;;;;;;;;;;5048419;28;20321;-44
2023/07/02 06:14:12;;;;;;;;;;;;;;;;;;5062573;28;19927;-45
2023/07/02 06:16:38;;;;;;;;;;;;;;;;;;5050763;28;20390;-44
2023/07/02 06:19:04;;;;;;;;;;;;;;;;;;5049597;28;19924;-44
2023/07/02 06:21:30;;;;;;;;;;;;;;;;;;5049625;28;20062;-44
2023/07/02 06:23:57;;;;;;;;;;;;;;;;;;5045903;28;19978;-44
2023/07/02 06:26:23;;;;;;;;;;;;;;;;;;5063455;28;20006;-45
2023/07/02 06:28:49;;;;;;;;;;;;;;;;;;5049364;28;19998;-44
2023/07/02 06:31:15;;;;;;;;;;;;;;;;;;5036734;28;19928;-44
2023/07/02 06:33:41;;;;;;;;;;;;;;;;;;5059793;28;19934;-44
2023/07/02 06:36:07;;;;;;;;;;;;;;;;;;5069546;28;20017;-46
2023/07/02 06:38:33;;;;;;;;;;;;;;;;;;5052716;28;20077;-45
2023/07/02 06:40:59;;;;;;;;;;;;;;;;;;5049747;28;19926;-44
2023/07/02 06:43:25;;;;;;;;;;;;;;;;;;5048948;28;19931;-45
2023/07/02 06:45:51;;;;;;;;;;;;;;;;;;5049451;28;19923;-44
2023/07/02 06:48:20;;;;;;;;;;;;;;;;;;5047711;28;20017;-44
2023/07/02 06:50:46;;;;;;;;;;;;;;;;;;5043447;28;19912;-45
2023/07/02 06:53:12;;;;;;;;;;;;;;;;;;5055798;28;19919;-44
2023/07/02 06:55:38;;;;;;;;;;;;;;;;;;5051869;28;19928;-44
2023/07/02 06:58:04;;;;;;;;;;;;;;;;;;5047956;28;19970;-43
2023/07/02 07:00:30;;;;;;;;;;;;;;;;;;5057012;28;19951;-44
2023/07/02 07:02:56;;;;;;;;;;;;;;;;;;5060244;28;19948;-44
2023/07/02 07:05:22;;;;;;;;;;;;;;;;;;5027879;28;20454;-46
2023/07/02 07:07:48;;;;;;;;;;;;;;;;;;5027749;28;19966;-47
2023/07/02 07:10:13;;;;;;;;;;;;;;;;;;5027536;28;19932;-46
2023/07/02 07:12:40;;;;;;;;;;;;;;;;;;5027408;28;19924;-45
2023/07/02 07:15:06;;;;;;;;;;;;;;;;;;5027330;28;19939;-44
2023/07/02 07:17:32;;;;;;;;;;;;;;;;;;5010115;28;20462;-45
2023/07/02 07:19:58;;;;;;;;;;;;;;;;;;5028083;28;20014;-46
2023/07/02 07:22:24;;;;;;;;;;;;;;;;;;5035621;28;20105;-45
2023/07/02 07:24:50;;;;;;;;;;;;;;;;;;5031784;28;19927;-44
2023/07/02 07:27:16;;;;;;;;;;;;;;;;;;5046258;28;20502;-48
2023/07/02 07:29:42;;;;;;;;;;;;;;;;;;5049156;28;19917;-46
2023/07/02 07:32:07;;;;;;;;;;;;;;;;;;5051731;28;19979;-46
2023/07/02 07:34:33;;;;;;;;;;;;;;;;;;5039928;28;19942;-47
2023/07/02 07:36:59;;;;;;;;;;;;;;;;;;5046958;28;19934;-48
2023/07/02 07:39:25;;;;;;;;;;;;;;;;;;5045262;28;19928;-45
2023/07/02 07:41:51;;;;;;;;;;;;;;;;;;5047226;28;19943;-46
2023/07/02 07:44:17;;;;;;;;;;;;;;;;;;5047257;28;19978;-44
2023/07/02 07:46:43;;;;;;;;;;;;;;;;;;5052093;28;19942;-44
2023/07/02 07:49:09;;;;;;;;;;;;;;;;;;5072121;28;20309;-44
2023/07/02 07:51:38;;;;;;;;;;;;;;;;;;5072091;28;19942;-45
2023/07/02 07:54:04;;;;;;;;;;;;;;;;;;5071782;28;19980;-45
2023/07/02 07:56:30;;;;;;;;;;;;;;;;;;5071424;28;19917;-45
2023/07/02 07:58:56;;;;;;;;;;;;;;;;;;5071543;28;19923;-45
2023/07/02 08:01:22;;;;;;;;;;;;;;;;;;5059149;28;19947;-44
2023/07/02 08:03:48;;;;;;;;;;;;;;;;;;5051368;28;20435;-48
2023/07/02 08:06:14;;;;;;;;;;;;;;;;;;5051246;28;19919;-46
2023/07/02 08:08:40;;;;;;;;;;;;;;;;;;5051202;28;19927;-49
2023/07/02 08:11:06;;;;;;;;;;;;;;;;;;5050452;28;19985;-44
2023/07/02 08:13:32;;;;;;;;;;;;;;;;;;5051150;28;19983;-47
2023/07/02 08:15:58;;;;;;;;;;;;;;;;;;5049833;28;20017;-45
2023/07/02 08:18:24;;;;;;;;;;;;;;;;;;5051010;28;20004;-44
2023/07/02 08:20:49;;;;;;;;;;;;;;;;;;5050779;28;19961;-46
2023/07/02 08:23:15;;;;;;;;;;;;;;;;;;5053002;28;20057;-46
2023/07/02 08:25:42;;;;;;;;;;;;;;;;;;5070870;28;19909;-48
2023/07/02 08:28:08;;;;;;;;;;;;;;;;;;5071527;28;19930;-45
2023/07/02 08:30:34;;;;;;;;;;;;;;;;;;5071198;28;19923;-44
2023/07/02 08:33:00;;;;;;;;;;;;;;;;;;5070092;28;19957;-46
2023/07/02 08:35:26;;;;;;;;;;;;;;;;;;5036951;28;19953;-46
2023/07/02 08:37:52;;;;;;;;;;;;;;;;;;5030917;28;19923;-45
2023/07/02 08:40:18;;;;;;;;;;;;;;;;;;5042660;28;19908;-45
2023/07/02 08:42:44;;;;;;;;;;;;;;;;;;5049894;28;20193;-45
2023/07/02 08:45:11;;;;;;;;;;;;;;;;;;5049262;28;19923;-48
2023/07/02 08:47:36;;;;;;;;;;;;;;;;;;5049964;28;19912;-47
2023/07/02 08:50:03;;;;;;;;;;;;;;;;;;5049155;28;19930;-45
2023/07/02 08:52:30;;;;;;;;;;;;;;;;;;5046890;28;20437;-47
2023/07/02 08:54:56;;;;;;;;;;;;;;;;;;5048953;28;19967;-47
2023/07/02 08:57:21;;;;;;;;;;;;;;;;;;5048848;28;20451;-46
2023/07/02 08:59:48;;;;;;;;;;;;;;;;;;5048361;28;19938;-46
2023/07/02 09:02:14;;;;;;;;;;;;;;;;;;5047146;28;19947;-47
2023/07/02 09:04:40;;;;;;;;;;;;;;;;;;5047175;28;19912;-45
2023/07/02 09:07:06;;;;;;;;;;;;;;;;;;5039707;28;19936;-45
2023/07/02 09:09:32;;;;;;;;;;;;;;;;;;5031000;28;19927;-46
2023/07/02 09:11:58;;;;;;;;;;;;;;;;;;5042187;28;20405;-45
2023/07/02 09:14:25;;;;;;;;;;;;;;;;;;5047557;28;19966;-45
2023/07/02 09:16:50;;;;;;;;;;;;;;;;;;5047738;28;19919;-49
2023/07/02 09:19:17;;;;;;;;;;;;;;;;;;5047665;28;19920;-46
2023/07/02 09:21:44;;;;;;;;;;;;;;;;;;5050495;28;20347;-47
2023/07/02 09:24:10;;;;;;;;;;;;;;;;;;5067854;28;19946;-45
2023/07/02 09:26:36;;;;;;;;;;;;;;;;;;5065154;28;20125;-46
2023/07/02 09:29:02;;;;;;;;;;;;;;;;;;5047386;28;20022;-46
2023/07/02 09:31:29;;;;;;;;;;;;;;;;;;5047481;28;19913;-45
2023/07/02 09:33:55;;;;;;;;;;;;;;;;;;5047367;28;20390;-45
2023/07/02 09:36:20;;;;;;;;;;;;;;;;;;5080994;28;19970;-46
2023/07/02 09:38:46;;;;;;;;;;;;;;;;;;5071370;28;19976;-46
2023/07/02 09:41:12;;;;;;;;;;;;;;;;;;5085803;28;19916;-47
2023/07/02 09:43:38;;;;;;;;;;;;;;;;;;5082675;28;19946;-48
2023/07/02 09:46:04;;;;;;;;;;;;;;;;;;5088427;28;19938;-47
2023/07/02 09:48:30;;;;;;;;;;;;;;;;;;5087829;28;19909;-45
2023/07/02 09:50:56;;;;;;;;;;;;;;;;;;5090062;28;19915;-48
2023/07/02 09:53:22;;;;;;;;;;;;;;;;;;5075930;28;19919;-49
2023/07/02 09:55:47;;;;;;;;;;;;;;;;;;5088324;28;19923;-47
2023/07/02 09:58:15;;;;;;;;;;;;;;;;;;5088264;28;20002;-38
2023/07/02 10:00:40;;;;;;;;;;;;;;;;;;5087305;28;20061;-38
2023/07/02 10:03:06;;;;;;;;;;;;;;;;;;5088004;28;20010;-38
2023/07/02 10:05:35;;;;;;;;;;;;;;;;;;5086511;28;20323;-38
2023/07/02 10:08:01;;;;;;;;;;;;;;;;;;5087456;28;19909;-38
2023/07/02 10:10:27;;;;;;;;;;;;;;;;;;5075844;28;20394;-38
2023/07/02 10:12:54;;;;;;;;;;;;;;;;;;5077131;28;19937;-38
2023/07/02 10:15:20;;;;;;;;;;;;;;;;;;5088538;28;19915;-38
2023/07/02 10:17:45;;;;;;;;;;;;;;;;;;5087887;28;20361;-38
2023/07/02 10:20:12;;;;;;;;;;;;;;;;;;5087168;28;20290;-38
2023/07/02 10:22:38;;;;;;;;;;;;;;;;;;5073009;28;19950;-38
2023/07/02 10:25:04;;;;;;;;;;;;;;;;;;5067603;28;20264;-38
2023/07/02 10:27:30;;;;;;;;;;;;;;;;;;5067364;28;19992;-38
2023/07/02 10:29:56;;;;;;;;;;;;;;;;;;5067630;28;19916;-38
2023/07/02 10:32:22;;;;;;;;;;;;;;;;;;5084331;28;19938;-38
2023/07/02 10:34:48;;;;;;;;;;;;;;;;;;5088196;28;20445;-38
2023/07/02 10:37:14;;;;;;;;;;;;;;;;;;5086645;28;19971;-38
2023/07/02 10:39:40;;;;;;;;;;;;;;;;;;5076683;28;20433;-38
2023/07/02 10:42:06;;;;;;;;;;;;;;;;;;5069908;28;20298;-38
2023/07/02 10:44:32;;;;;;;;;;;;;;;;;;5087818;28;19954;-38
2023/07/02 10:46:58;;;;;;;;;;;;;;;;;;5087358;28;20352;-38
2023/07/02 10:49:26;;;;;;;;;;;;;;;;;;5087172;28;20011;-38
2023/07/02 10:51:52;;;;;;;;;;;;;;;;;;5087207;28;19919;-37
2023/07/02 10:54:18;;;;;;;;;;;;;;;;;;5079659;28;20617;-38
2023/07/02 10:56:43;;;;;;;;;;;;;;;;;;5065951;28;19913;-38
2023/07/02 10:59:09;;;;;;;;;;;;;;;;;;5075222;28;19908;-39
2023/07/02 11:01:35;;;;;;;;;;;;;;;;;;5083859;28;19926;-43
2023/07/02 11:04:03;;;;;;;;;;;;;;;;;;5084675;28;19919;-43
2023/07/02 11:06:30;;;;;;;;;;;;;;;;;;5084726;28;19986;-43
2023/07/02 11:08:56;;;;;;;;;;;;;;;;;;5084005;28;19912;-44
2023/07/02 11:11:23;;;;;;;;;;;;;;;;;;5084123;28;19939;-42
2023/07/02 11:13:52;;;;;;;;;;;;;;;;;;5083647;28;19963;-44
2023/07/02 11:16:18;;;;;;;;;;;;;;;;;;5084120;28;19916;-43
2023/07/02 11:18:44;;;;;;;;;;;;;;;;;;5079603;28;19923;-42
2023/07/02 11:21:10;;;;;;;;;;;;;;;;;;5101896;28;19920;-43
2023/07/02 11:23:36;;;;;;;;;;;;;;;;;;5082002;28;19913;-42
2023/07/02 11:26:03;;;;;;;;;;;;;;;;;;5086934;28;19975;-42
2023/07/02 11:28:31;;;;;;;;;;;;;;;;;;5084725;28;19912;-42
2023/07/02 11:30:57;;;;;;;;;;;;;;;;;;5067970;28;19935;-42
2023/07/02 11:33:24;;;;;;;;;;;;;;;;;;5070351;28;19943;-43
2023/07/02 11:35:50;;;;;;;;;;;;;;;;;;5071014;28;20410;-43
2023/07/02 11:38:15;;;;;;;;;;;;;;;;;;5086554;28;19916;-41
2023/07/02 11:40:41;;;;;;;;;;;;;;;;;;5103721;28;19938;-42
2023/07/02 11:43:08;;;;;;;;;;;;;;;;;;5087326;28;19919;-42
2023/07/02 11:45:35;;;;;;;;;;;;;;;;;;5088919;28;19995;-42
2023/07/02 11:48:02;;;;;;;;;;;;;;;;;;5088044;28;19909;-41
2023/07/02 11:50:30;;;;;;;;;;;;;;;;;;5087364;28;20426;-42
2023/07/02 11:52:56;;;;;;;;;;;;;;;;;;5080968;28;19916;-43
2023/07/02 11:55:22;;;;;;;;;;;;;;;;;;5068107;28;19913;-41
2023/07/02 11:57:49;;;;;;;;;;;;;;;;;;5078996;28;19916;-43
2023/07/02 12:00:15;;;;;;;;;;;;;;;;;;5101123;28;19916;-42
2023/07/02 12:02:42;;;;;;;;;;;;;;;;;;5085707;28;20128;-42
2023/07/02 12:05:08;;;;;;;;;;;;;;;;;;5084157;28;19916;-41
2023/07/02 12:07:34;;;;;;;;;;;;;;;;;;5067666;28;19912;-43
2023/07/02 12:09:59;;;;;;;;;;;;;;;;;;5099800;28;20291;-42
2023/07/02 12:12:25;;;;;;;;;;;;;;;;;;5084051;28;20434;-41
2023/07/02 12:14:51;;;;;;;;;;;;;;;;;;5078915;28;20322;-42
2023/07/02 12:17:17;;;;;;;;;;;;;;;;;;5081562;28;19916;-41
2023/07/02 12:19:43;;;;;;;;;;;;;;;;;;5076483;28;19913;-42
2023/07/02 12:22:09;;;;;;;;;;;;;;;;;;5083042;28;19956;-41
2023/07/02 12:24:35;;;;;;;;;;;;;;;;;;5100785;28;19924;-41
2023/07/02 12:27:01;;;;;;;;;;;;;;;;;;5100879;28;19917;-41
2023/07/02 12:29:27;;;;;;;;;;;;;;;;;;5087370;28;19908;-41
2023/07/02 12:31:53;;;;;;;;;;;;;;;;;;5070618;28;19932;-41
2023/07/02 12:34:20;;;;;;;;;;;;;;;;;;5081262;28;19916;-41
2023/07/02 12:36:46;;;;;;;;;;;;;;;;;;5079415;28;20019;-41
2023/07/02 12:39:12;;;;;;;;;;;;;;;;;;5101698;28;20308;-41
2023/07/02 12:41:38;;;;;;;;;;;;;;;;;;5079717;28;19921;-42
2023/07/02 12:44:04;;;;;;;;;;;;;;;;;;5086947;28;19919;-41
2023/07/02 12:46:31;;;;;;;;;;;;;;;;;;5081487;28;19912;-41
2023/07/02 12:48:57;;;;;;;;;;;;;;;;;;5076579;28;19978;-42
2023/07/02 12:51:23;;;;;;;;;;;;;;;;;;5088937;28;20367;-42
2023/07/02 12:53:49;;;;;;;;;;;;;;;;;;5104604;28;19918;-41
2023/07/02 12:56:15;;;;;;;;;;;;;;;;;;5088592;28;20409;-44
2023/07/02 12:58:41;;;;;;;;;;;;;;;;;;5088605;28;19912;-41
2023/07/02 13:01:07;;;;;;;;;;;;;;;;;;5088315;28;19919;-42
2023/07/02 13:03:33;;;;;;;;;;;;;;;;;;5080533;28;19921;-42
2023/07/02 13:05:59;;;;;;;;;;;;;;;;;;5071145;28;19912;-43
2023/07/02 13:08:25;;;;;;;;;;;;;;;;;;5082716;28;20037;-42
2023/07/02 13:10:50;;;;;;;;;;;;;;;;;;5066280;28;19916;-42
2023/07/02 13:13:16;;;;;;;;;;;;;;;;;;5085934;28;19919;-43
2023/07/02 13:15:42;;;;;;;;;;;;;;;;;;5085433;28;20314;-43
2023/07/02 13:18:08;;;;;;;;;;;;;;;;;;5085590;28;19916;-43
2023/07/02 13:20:34;;;;;;;;;;;;;;;;;;5090529;28;20340;-42
2023/07/02 13:23:00;;;;;;;;;;;;;;;;;;5081919;28;19927;-41
2023/07/02 13:25:26;;;;;;;;;;;;;;;;;;5071075;28;19950;-40
2023/07/02 13:27:52;;;;;;;;;;;;;;;;;;5087900;28;19916;-41
2023/07/02 13:30:18;;;;;;;;;;;;;;;;;;5083366;28;19916;-42
2023/07/02 13:32:43;;;;;;;;;;;;;;;;;;5069830;28;20440;-43
2023/07/02 13:35:09;;;;;;;;;;;;;;;;;;5082898;28;19942;-41
2023/07/02 13:37:35;;;;;;;;;;;;;;;;;;5076922;28;19920;-41
2023/07/02 13:40:03;;;;;;;;;;;;;;;;;;5050731;28;20433;-41
2023/07/02 13:42:30;;;;;;;;;;;;;;;;;;5075269;28;19916;-41
2023/07/02 13:44:56;;;;;;;;;;;;;;;;;;5079509;28;20011;-42
2023/07/02 13:47:23;;;;;;;;;;;;;;;;;;5085099;28;20204;-42
2023/07/02 13:49:49;;;;;;;;;;;;;;;;;;5086439;28;19920;-42
2023/07/02 13:52:15;;;;;;;;;;;;;;;;;;5072358;28;19927;-41
2023/07/02 13:54:41;;;;;;;;;;;;;;;;;;5071831;28;20310;-41
2023/07/02 13:57:08;;;;;;;;;;;;;;;;;;5071133;28;19965;-42
2023/07/02 13:59:35;;;;;;;;;;;;;;;;;;5083231;28;19985;-42
2023/07/02 14:02:01;;;;;;;;;;;;;;;;;;5083690;28;19947;-42
2023/07/02 14:04:27;;;;;;;;;;;;;;;;;;5083781;28;19920;-43
2023/07/02 14:06:54;;;;;;;;;;;;;;;;;;5084134;28;19965;-41
2023/07/02 14:09:20;;;;;;;;;;;;;;;;;;5086004;28;19914;-42
2023/07/02 14:11:46;;;;;;;;;;;;;;;;;;5073698;28;19924;-41
2023/07/02 14:14:12;;;;;;;;;;;;;;;;;;5081471;28;19916;-42
2023/07/02 14:16:38;;;;;;;;;;;;;;;;;;5084781;28;19912;-42
2023/07/02 14:19:04;;;;;;;;;;;;;;;;;;5098303;28;19989;-42
2023/07/02 14:21:30;;;;;;;;;;;;;;;;;;5065731;28;19917;-42
2023/07/02 14:23:57;;;;;;;;;;;;;;;;;;5082535;28;19947;-42
2023/07/02 14:26:23;;;;;;;;;;;;;;;;;;5081337;28;19912;-41
2023/07/02 14:28:49;;;;;;;;;;;;;;;;;;5080127;28;19917;-41
2023/07/02 14:31:15;;;;;;;;;;;;;;;;;;5080138;28;20414;-42
2023/07/02 14:33:41;;;;;;;;;;;;;;;;;;5069449;28;20588;-41
2023/07/02 14:36:08;;;;;;;;;;;;;;;;;;5084477;28;19908;-42
2023/07/02 14:38:35;;;;;;;;;;;;;;;;;;5080377;28;19917;-43
2023/07/02 14:41:00;;;;;;;;;;;;;;;;;;5079558;28;20442;-42
2023/07/02 14:43:27;;;;;;;;;;;;;;;;;;5065329;28;20028;-42
2023/07/02 14:45:53;;;;;;;;;;;;;;;;;;5065288;28;19908;-42
2023/07/02 14:48:19;;;;;;;;;;;;;;;;;;5065966;28;19909;-43
2023/07/02 14:50:45;;;;;;;;;;;;;;;;;;5065393;28;20489;-41
2023/07/02 14:53:11;;;;;;;;;;;;;;;;;;5064872;28;19912;-42
2023/07/02 14:55:37;;;;;;;;;;;;;;;;;;5064508;28;19919;-44
2023/07/02 14:58:03;;;;;;;;;;;;;;;;;;5064899;28;19999;-42
2023/07/02 15:00:29;;;;;;;;;;;;;;;;;;5065170;28;19913;-42
2023/07/02 15:02:54;;;;;;;;;;;;;;;;;;5064935;28;19917;-44
2023/07/02 15:05:21;;;;;;;;;;;;;;;;;;5065674;28;19916;-43
2023/07/02 15:07:48;;;;;;;;;;;;;;;;;;5070508;28;20296;-41
2023/07/02 15:10:14;;;;;;;;;;;;;;;;;;5079597;28;19917;-41
2023/07/02 15:12:40;;;;;;;;;;;;;;;;;;5064473;28;19923;-41
2023/07/02 15:15:06;;;;;;;;;;;;;;;;;;5061185;28;19916;-42
2023/07/02 15:17:32;;;;;;;;;;;;;;;;;;5046309;28;19908;-42
2023/07/02 15:19:59;;;;;;;;;;;;;;;;;;5078314;28;20496;-41
2023/07/02 15:22:25;;;;;;;;;;;;;;;;;;5077158;28;19980;-42
2023/07/02 15:24:52;;;;;;;;;;;;;;;;;;5078449;28;20002;-41
2023/07/02 15:27:18;;;;;;;;;;;;;;;;;;5076508;28;19923;-41
2023/07/02 15:29:43;;;;;;;;;;;;;;;;;;5070292;28;19916;-41
2023/07/02 15:32:09;;;;;;;;;;;;;;;;;;5092986;28;19932;-43
2023/07/02 15:34:35;;;;;;;;;;;;;;;;;;5105106;28;20344;-42
2023/07/02 15:37:01;;;;;;;;;;;;;;;;;;5091099;28;19916;-41
2023/07/02 15:39:32;;;;;;;;;;;;;;;;;;5084131;28;20375;-41
2023/07/02 15:41:59;;;;;;;;;;;;;;;;;;5081616;28;19923;-43
2023/07/02 15:44:25;;;;;;;;;;;;;;;;;;5090515;28;19920;-42
2023/07/02 15:46:51;;;;;;;;;;;;;;;;;;5078503;28;19961;-40
2023/07/02 15:49:17;;;;;;;;;;;;;;;;;;5090718;28;20620;-41
2023/07/02 15:51:42;;;;;;;;;;;;;;;;;;5120010;28;19908;-41
2023/07/02 15:54:08;;;;;;;;;;;;;;;;;;5082492;28;19922;-40
2023/07/02 15:56:35;;;;;;;;;;;;;;;;;;5079414;28;20387;-40
2023/07/02 15:59:02;;;;;;;;;;;;;;;;;;5090055;28;19946;-40
2023/07/02 16:01:28;;;;;;;;;;;;;;;;;;5089572;28;19916;-40
2023/07/02 16:03:54;;;;;;;;;;;;;;;;;;5077888;28;19966;-42
2023/07/02 16:06:21;;;;;;;;;;;;;;;;;;5078557;28;20022;-40
2023/07/02 16:08:48;;;;;;;;;;;;;;;;;;5083967;28;20222;-43
2023/07/02 16:11:14;;;;;;;;;;;;;;;;;;5085848;28;19942;-40
2023/07/02 16:13:40;;;;;;;;;;;;;;;;;;5099176;28;20349;-40
2023/07/02 16:16:06;;;;;;;;;;;;;;;;;;5083092;28;19970;-40
2023/07/02 16:18:32;;;;;;;;;;;;;;;;;;5080419;28;20410;-39
2023/07/02 16:20:59;;;;;;;;;;;;;;;;;;5083394;28;19917;-39
2023/07/02 16:23:26;;;;;;;;;;;;;;;;;;5081867;28;19975;-40
2023/07/02 16:25:52;;;;;;;;;;;;;;;;;;5085045;28;19916;-40
2023/07/02 16:28:18;;;;;;;;;;;;;;;;;;5083998;28;20285;-40
2023/07/02 16:30:44;;;;;;;;;;;;;;;;;;5086100;28;19924;-40
2023/07/02 16:33:10;;;;;;;;;;;;;;;;;;5073164;28;19921;-39
2023/07/02 16:35:36;;;;;;;;;;;;;;;;;;5084811;28;20287;-40
2023/07/02 16:38:05;;;;;;;;;;;;;;;;;;5086057;28;19943;-40
2023/07/02 16:40:31;;;;;;;;;;;;;;;;;;5083045;28;19938;-41
2023/07/02 16:42:56;;;;;;;;;;;;;;;;;;5086078;28;19923;-40
2023/07/02 16:45:22;;;;;;;;;;;;;;;;;;5084322;28;19912;-40
2023/07/02 16:47:49;;;;;;;;;;;;;;;;;;5071142;28;19916;-41
2023/07/02 16:50:16;;;;;;;;;;;;;;;;;;5107049;28;20374;-41
2023/07/02 16:52:43;;;;;;;;;;;;;;;;;;5084924;28;19920;-40
2023/07/02 16:55:09;;;;;;;;;;;;;;;;;;5086642;28;19954;-39
2023/07/02 16:57:37;;;;;;;;;;;;;;;;;;5087258;28;19971;-39
2023/07/02 17:00:03;;;;;;;;;;;;;;;;;;5076123;28;19919;-40
2023/07/02 17:02:29;;;;;;;;;;;;;;;;;;5084928;28;20014;-39
2023/07/02 17:04:55;;;;;;;;;;;;;;;;;;5086393;28;20361;-40
2023/07/02 17:07:20;;;;;;;;;;;;;;;;;;5074454;28;19969;-41
2023/07/02 17:09:47;;;;;;;;;;;;;;;;;;5089051;28;20040;-42
2023/07/02 17:12:13;;;;;;;;;;;;;;;;;;5086298;28;20069;-41
2023/07/02 17:14:39;;;;;;;;;;;;;;;;;;5068139;28;19912;-40
2023/07/02 17:17:05;;;;;;;;;;;;;;;;;;5079060;28;19916;-41
2023/07/02 17:19:33;;;;;;;;;;;;;;;;;;5101090;28;20026;-41
2023/07/02 17:21:59;;;;;;;;;;;;;;;;;;5084460;28;19919;-40
2023/07/02 17:24:26;;;;;;;;;;;;;;;;;;5074299;28;19917;-41
2023/07/02 17:26:53;;;;;;;;;;;;;;;;;;5093734;28;20461;-41
2023/07/02 17:29:19;;;;;;;;;;;;;;;;;;5086323;28;19912;-40
2023/07/02 17:31:46;;;;;;;;;;;;;;;;;;5086682;28;20491;-41
2023/07/02 17:34:13;;;;;;;;;;;;;;;;;;5081794;28;20057;-41
2023/07/02 17:36:40;;;;;;;;;;;;;;;;;;5084827;28;20412;-40
2023/07/02 17:39:06;;;;;;;;;;;;;;;;;;5086797;28;19912;-40
2023/07/02 17:41:32;;;;;;;;;;;;;;;;;;5085193;28;20069;-41
2023/07/02 17:43:59;;;;;;;;;;;;;;;;;;5071932;28;20450;-40
2023/07/02 17:46:24;;;;;;;;;;;;;;;;;;5075812;28;20275;-41
2023/07/02 17:48:50;;;;;;;;;;;;;;;;;;5085300;28;19915;-41
2023/07/02 17:51:16;;;;;;;;;;;;;;;;;;5076614;28;19912;-41
2023/07/02 17:53:42;;;;;;;;;;;;;;;;;;5081188;28;19913;-40
2023/07/02 17:56:09;;;;;;;;;;;;;;;;;;5077730;28;20378;-40
2023/07/02 17:58:35;;;;;;;;;;;;;;;;;;5081772;28;20661;-40
2023/07/02 18:01:01;;;;;;;;;;;;;;;;;;5082068;28;20011;-41
2023/07/02 18:03:27;;;;;;;;;;;;;;;;;;5072117;28;19963;-40
2023/07/02 18:05:53;;;;;;;;;;;;;;;;;;5076170;28;19913;-40
2023/07/02 18:08:20;;;;;;;;;;;;;;;;;;5076923;28;19923;-40
2023/07/02 18:10:46;;;;;;;;;;;;;;;;;;5079810;28;19925;-40
2023/07/02 18:13:12;;;;;;;;;;;;;;;;;;5078527;28;20594;-41
2023/07/02 18:15:37;;;;;;;;;;;;;;;;;;5084790;28;19916;-40
2023/07/02 18:18:03;;;;;;;;;;;;;;;;;;5079571;28;19919;-40
2023/07/02 18:20:29;;;;;;;;;;;;;;;;;;5085532;28;19920;-39
2023/07/02 18:22:55;;;;;;;;;;;;;;;;;;5081659;28;19927;-39
2023/07/02 18:25:21;;;;;;;;;;;;;;;;;;5074935;28;19922;-40
2023/07/02 18:27:47;;;;;;;;;;;;;;;;;;5077556;28;19916;-39
2023/07/02 18:30:13;;;;;;;;;;;;;;;;;;5083249;28;19923;-40
2023/07/02 18:32:39;;;;;;;;;;;;;;;;;;5082774;28;19917;-40
2023/07/02 18:35:06;;;;;;;;;;;;;;;;;;5066367;28;19912;-39
2023/07/02 18:37:32;;;;;;;;;;;;;;;;;;5082576;28;20345;-40
2023/07/02 18:39:58;;;;;;;;;;;;;;;;;;5083724;28;19927;-40
2023/07/02 18:42:24;;;;;;;;;;;;;;;;;;5084228;28;19912;-40
2023/07/02 18:44:51;;;;;;;;;;;;;;;;;;5084404;28;19908;-39
2023/07/02 18:47:17;;;;;;;;;;;;;;;;;;5083693;28;19923;-39
2023/07/02 18:49:43;;;;;;;;;;;;;;;;;;5083411;28;19916;-39
2023/07/02 18:52:09;;;;;;;;;;;;;;;;;;5084855;28;19926;-40
2023/07/02 18:54:35;;;;;;;;;;;;;;;;;;5056260;28;20022;-39
2023/07/02 18:57:02;;;;;;;;;;;;;;;;;;5080225;28;19916;-39
2023/07/02 18:59:28;;;;;;;;;;;;;;;;;;5076980;28;19923;-39
2023/07/02 19:01:54;;;;;;;;;;;;;;;;;;5074033;28;19916;-39
2023/07/02 19:04:20;;;;;;;;;;;;;;;;;;5081479;28;19920;-39
2023/07/02 19:06:46;;;;;;;;;;;;;;;;;;5062824;28;20322;-39
2023/07/02 19:09:12;;;;;;;;;;;;;;;;;;5064870;28;19913;-39
2023/07/02 19:11:38;;;;;;;;;;;;;;;;;;5081276;28;20350;-39
2023/07/02 19:14:03;;;;;;;;;;;;;;;;;;5075322;28;19916;-39
2023/07/02 19:16:30;;;;;;;;;;;;;;;;;;5081606;28;19946;-39
2023/07/02 19:18:56;;;;;;;;;;;;;;;;;;5083790;28;19947;-39
2023/07/02 19:21:23;;;;;;;;;;;;;;;;;;5079725;28;20427;-39
2023/07/02 19:23:49;;;;;;;;;;;;;;;;;;5064182;28;20032;-39
2023/07/02 19:26:15;;;;;;;;;;;;;;;;;;5064953;28;19939;-39
2023/07/02 19:28:41;;;;;;;;;;;;;;;;;;5082685;28;20414;-39
2023/07/02 19:31:07;;;;;;;;;;;;;;;;;;5082207;28;19955;-39
2023/07/02 19:33:34;;;;;;;;;;;;;;;;;;5082917;28;20010;-40
2023/07/02 19:36:00;;;;;;;;;;;;;;;;;;5083788;28;19916;-40
2023/07/02 19:38:29;;;;;;;;;;;;;;;;;;5083886;28;19957;-39
2023/07/02 19:40:56;;;;;;;;;;;;;;;;;;5084572;28;20539;-39
2023/07/02 19:43:22;;;;;;;;;;;;;;;;;;5088144;28;19927;-39
2023/07/02 19:45:48;;;;;;;;;;;;;;;;;;5086268;28;19920;-39
2023/07/02 19:48:15;;;;;;;;;;;;;;;;;;5087774;28;19935;-39
2023/07/02 19:50:41;;;;;;;;;;;;;;;;;;5086630;28;20278;-39
2023/07/02 19:53:08;;;;;;;;;;;;;;;;;;5069769;28;20007;-39
2023/07/02 19:55:37;;;;;;;;;;;;;;;;;;5085831;28;20057;-39
2023/07/02 19:58:04;;;;;;;;;;;;;;;;;;5083313;28;20446;-39
2023/07/02 20:00:31;;;;;;;;;;;;;;;;;;5081363;28;19915;-40
2023/07/02 20:02:56;;;;;;;;;;;;;;;;;;5090441;28;19973;-39
2023/07/02 20:05:22;;;;;;;;;;;;;;;;;;5083591;28;20333;-39
2023/07/02 20:07:48;;;;;;;;;;;;;;;;;;5082894;28;20276;-39
2023/07/02 20:10:14;;;;;;;;;;;;;;;;;;5078200;28;20013;-39
2023/07/02 20:12:40;;;;;;;;;;;;;;;;;;5068249;28;20007;-39
2023/07/02 20:15:06;;;;;;;;;;;;;;;;;;5076441;28;20267;-39
2023/07/02 20:17:33;;;;;;;;;;;;;;;;;;5087052;28;19927;-39
2023/07/02 20:19:59;;;;;;;;;;;;;;;;;;5086540;28;19966;-39
2023/07/02 20:22:25;;;;;;;;;;;;;;;;;;5086261;28;19967;-39
2023/07/02 20:24:51;;;;;;;;;;;;;;;;;;5087977;28;19935;-39
2023/07/02 20:27:19;;;;;;;;;;;;;;;;;;5085088;28;20402;-39
2023/07/02 20:29:45;;;;;;;;;;;;;;;;;;5085514;28;19916;-39
2023/07/02 20:32:11;;;;;;;;;;;;;;;;;;5083073;28;19917;-39
2023/07/02 20:34:37;;;;;;;;;;;;;;;;;;5092613;28;19968;-39
2023/07/02 20:37:03;;;;;;;;;;;;;;;;;;5084876;28;19916;-39
2023/07/02 20:39:29;;;;;;;;;;;;;;;;;;5079645;28;19917;-39
2023/07/02 20:41:56;;;;;;;;;;;;;;;;;;5086264;28;19985;-39
2023/07/02 20:44:22;;;;;;;;;;;;;;;;;;5091616;28;19970;-39
2023/07/02 20:46:48;;;;;;;;;;;;;;;;;;5078663;28;20488;-39
2023/07/02 20:49:14;;;;;;;;;;;;;;;;;;5072220;28;20438;-39
2023/07/02 20:51:40;;;;;;;;;;;;;;;;;;5087150;28;20275;-39
2023/07/02 20:54:06;;;;;;;;;;;;;;;;;;5083827;28;19919;-39
2023/07/02 20:56:32;;;;;;;;;;;;;;;;;;5068810;28;19920;-39
2023/07/02 20:58:58;;;;;;;;;;;;;;;;;;5066392;28;19947;-39
2023/07/02 21:01:24;;;;;;;;;;;;;;;;;;5085338;28;20001;-39
2023/07/02 21:03:50;;;;;;;;;;;;;;;;;;5074314;28;19921;-39
2023/07/02 21:06:15;;;;;;;;;;;;;;;;;;5078674;28;19927;-39
2023/07/02 21:08:41;;;;;;;;;;;;;;;;;;5094134;28;19995;-39
2023/07/02 21:11:07;;;;;;;;;;;;;;;;;;5081026;28;20373;-39
2023/07/02 21:13:33;;;;;;;;;;;;;;;;;;5067085;28;19916;-39
2023/07/02 21:15:59;;;;;;;;;;;;;;;;;;5083636;28;19923;-39
2023/07/02 21:18:25;;;;;;;;;;;;;;;;;;5063333;28;19912;-39
2023/07/02 21:20:51;;;;;;;;;;;;;;;;;;5074854;28;19934;-39
2023/07/02 21:23:17;;;;;;;;;;;;;;;;;;5064127;28;19916;-39
2023/07/02 21:25:43;;;;;;;;;;;;;;;;;;5086592;28;19908;-39
2023/07/02 21:28:09;;;;;;;;;;;;;;;;;;5086861;28;19912;-39
2023/07/02 21:30:34;;;;;;;;;;;;;;;;;;5086488;28;19908;-39
2023/07/02 21:33:01;;;;;;;;;;;;;;;;;;5094927;28;19923;-39
2023/07/02 21:35:27;;;;;;;;;;;;;;;;;;5099620;28;19918;-39
2023/07/02 21:37:53;;;;;;;;;;;;;;;;;;5086045;28;19908;-39
2023/07/02 21:40:19;;;;;;;;;;;;;;;;;;5067695;28;19916;-39
2023/07/02 21:42:44;;;;;;;;;;;;;;;;;;5086156;28;19912;-39